sensor_id;sensor_type;location;lat;lon;timestamp;temperature;humidity
67364;HTU21D;54250;45.572;38.086;2023-02-18T00:00:22;4.19;86.80
67364;HTU21D;54250;45.572;38.086;2023-02-18T00:02:48;4.15;86.82
67364;HTU21D;54250;45.572;38.086;2023-02-18T00:05:15;4.14;86.86
67364;HTU21D;54250;45.572;38.086;2023-02-18T00:07:41;4.12;86.86
67364;HTU21D;54250;45.572;38.086;2023-02-18T00:10:12;4.10;86.83
67364;HTU21D;54250;45.572;38.086;2023-02-18T00:12:38;4.06;86.83
67364;HTU21D;54250;45.572;38.086;2023-02-18T00:15:04;4.04;86.88
67364;HTU21D;54250;45.572;38.086;2023-02-18T00:17:31;4.01;86.92
67364;HTU21D;54250;45.572;38.086;2023-02-18T00:19:57;3.99;86.87
67364;HTU21D;54250;45.572;38.086;2023-02-18T00:22:24;3.97;86.90
67364;HTU21D;54250;45.572;38.086;2023-02-18T00:24:50;3.94;86.92
67364;HTU21D;54250;45.572;38.086;2023-02-18T00:27:16;3.91;86.89
67364;HTU21D;54250;45.572;38.086;2023-02-18T00:29:42;3.89;86.93
67364;HTU21D;54250;45.572;38.086;2023-02-18T00:32:09;3.87;86.84
67364;HTU21D;54250;45.572;38.086;2023-02-18T00:34:35;3.85;86.88
67364;HTU21D;54250;45.572;38.086;2023-02-18T00:37:03;3.83;86.89
67364;HTU21D;54250;45.572;38.086;2023-02-18T00:39:29;3.80;86.81
67364;HTU21D;54250;45.572;38.086;2023-02-18T00:41:55;3.77;86.87
67364;HTU21D;54250;45.572;38.086;2023-02-18T00:44:21;3.75;86.84
67364;HTU21D;54250;45.572;38.086;2023-02-18T00:46:48;3.74;86.80
67364;HTU21D;54250;45.572;38.086;2023-02-18T00:49:15;3.73;86.77
67364;HTU21D;54250;45.572;38.086;2023-02-18T00:51:41;3.72;86.83
67364;HTU21D;54250;45.572;38.086;2023-02-18T00:54:08;3.70;86.85
67364;HTU21D;54250;45.572;38.086;2023-02-18T00:56:34;3.68;86.86
67364;HTU21D;54250;45.572;38.086;2023-02-18T00:59:00;3.67;86.83
67364;HTU21D;54250;45.572;38.086;2023-02-18T01:01:26;3.62;86.83
67364;HTU21D;54250;45.572;38.086;2023-02-18T01:03:53;3.61;86.83
67364;HTU21D;54250;45.572;38.086;2023-02-18T01:06:19;3.59;86.82
67364;HTU21D;54250;45.572;38.086;2023-02-18T01:08:47;3.59;86.86
67364;HTU21D;54250;45.572;38.086;2023-02-18T01:11:14;3.57;86.85
67364;HTU21D;54250;45.572;38.086;2023-02-18T01:13:41;3.53;86.83
67364;HTU21D;54250;45.572;38.086;2023-02-18T01:16:07;3.52;87.06
67364;HTU21D;54250;45.572;38.086;2023-02-18T01:18:34;3.45;87.00
67364;HTU21D;54250;45.572;38.086;2023-02-18T01:21:04;3.41;87.10
67364;HTU21D;54250;45.572;38.086;2023-02-18T01:23:36;3.34;87.26
67364;HTU21D;54250;45.572;38.086;2023-02-18T01:26:02;3.33;87.15
67364;HTU21D;54250;45.572;38.086;2023-02-18T01:28:28;3.32;87.08
67364;HTU21D;54250;45.572;38.086;2023-02-18T01:30:54;3.29;87.04
67364;HTU21D;54250;45.572;38.086;2023-02-18T01:33:20;3.27;87.03
67364;HTU21D;54250;45.572;38.086;2023-02-18T01:35:46;3.27;86.99
67364;HTU21D;54250;45.572;38.086;2023-02-18T01:38:13;3.29;86.92
67364;HTU21D;54250;45.572;38.086;2023-02-18T01:40:48;3.30;86.84
67364;HTU21D;54250;45.572;38.086;2023-02-18T01:43:16;3.28;86.89
67364;HTU21D;54250;45.572;38.086;2023-02-18T01:50:53;3.05;87.09
67364;HTU21D;54250;45.572;38.086;2023-02-18T01:53:27;2.93;87.20
67364;HTU21D;54250;45.572;38.086;2023-02-18T01:55:56;2.78;87.39
67364;HTU21D;54250;45.572;38.086;2023-02-18T01:58:24;2.65;87.51
67364;HTU21D;54250;45.572;38.086;2023-02-18T02:00:50;2.55;87.67
67364;HTU21D;54250;45.572;38.086;2023-02-18T02:03:16;2.37;87.82
67364;HTU21D;54250;45.572;38.086;2023-02-18T02:05:42;2.21;88.00
67364;HTU21D;54250;45.572;38.086;2023-02-18T02:08:12;2.06;88.19
67364;HTU21D;54250;45.572;38.086;2023-02-18T02:10:50;1.94;88.27
67364;HTU21D;54250;45.572;38.086;2023-02-18T02:13:28;1.78;88.51
67364;HTU21D;54250;45.572;38.086;2023-02-18T02:16:05;1.61;88.64
67364;HTU21D;54250;45.572;38.086;2023-02-18T02:30:10;0.94;88.80
67364;HTU21D;54250;45.572;38.086;2023-02-18T02:38:24;0.77;88.98
67364;HTU21D;54250;45.572;38.086;2023-02-18T02:41:20;0.72;88.89
67364;HTU21D;54250;45.572;38.086;2023-02-18T02:43:57;0.72;89.06
67364;HTU21D;54250;45.572;38.086;2023-02-18T02:46:47;0.75;88.89
67364;HTU21D;54250;45.572;38.086;2023-02-18T02:52:02;0.95;88.57
67364;HTU21D;54250;45.572;38.086;2023-02-18T02:54:30;1.03;88.48
67364;HTU21D;54250;45.572;38.086;2023-02-18T02:57:36;1.11;88.31
67364;HTU21D;54250;45.572;38.086;2023-02-18T03:00:03;1.20;88.70
67364;HTU21D;54250;45.572;38.086;2023-02-18T03:11:06;1.46;88.68
67364;HTU21D;54250;45.572;38.086;2023-02-18T03:19:01;1.56;88.96
67364;HTU21D;54250;45.572;38.086;2023-02-18T03:21:40;1.64;88.92
67364;HTU21D;54250;45.572;38.086;2023-02-18T03:24:15;1.68;88.82
67364;HTU21D;54250;45.572;38.086;2023-02-18T03:26:47;1.69;88.77
67364;HTU21D;54250;45.572;38.086;2023-02-18T03:29:15;1.69;88.81
67364;HTU21D;54250;45.572;38.086;2023-02-18T03:31:45;1.71;88.88
67364;HTU21D;54250;45.572;38.086;2023-02-18T03:34:15;1.78;88.86
67364;HTU21D;54250;45.572;38.086;2023-02-18T03:36:43;1.83;88.75
67364;HTU21D;54250;45.572;38.086;2023-02-18T03:39:16;1.90;88.68
67364;HTU21D;54250;45.572;38.086;2023-02-18T03:41:43;1.93;88.62
67364;HTU21D;54250;45.572;38.086;2023-02-18T03:44:10;1.97;88.50
67364;HTU21D;54250;45.572;38.086;2023-02-18T03:46:39;2.01;88.60
67364;HTU21D;54250;45.572;38.086;2023-02-18T03:49:05;2.05;88.54
67364;HTU21D;54250;45.572;38.086;2023-02-18T03:51:32;2.07;88.62
67364;HTU21D;54250;45.572;38.086;2023-02-18T03:53:58;2.10;88.58
67364;HTU21D;54250;45.572;38.086;2023-02-18T03:56:24;2.13;88.60
67364;HTU21D;54250;45.572;38.086;2023-02-18T03:58:50;2.16;88.67
67364;HTU21D;54250;45.572;38.086;2023-02-18T04:01:16;2.17;88.83
67364;HTU21D;54250;45.572;38.086;2023-02-18T04:03:42;2.21;88.83
67364;HTU21D;54250;45.572;38.086;2023-02-18T04:06:09;2.24;88.70
67364;HTU21D;54250;45.572;38.086;2023-02-18T04:08:35;2.27;88.69
67364;HTU21D;54250;45.572;38.086;2023-02-18T04:11:02;2.28;88.65
67364;HTU21D;54250;45.572;38.086;2023-02-18T04:13:28;2.30;88.75
67364;HTU21D;54250;45.572;38.086;2023-02-18T04:15:54;2.30;88.80
67364;HTU21D;54250;45.572;38.086;2023-02-18T04:18:20;2.30;88.80
67364;HTU21D;54250;45.572;38.086;2023-02-18T04:20:47;2.31;88.81
67364;HTU21D;54250;45.572;38.086;2023-02-18T04:23:13;2.32;88.72
67364;HTU21D;54250;45.572;38.086;2023-02-18T04:25:40;2.35;88.70
67364;HTU21D;54250;45.572;38.086;2023-02-18T04:28:06;2.37;88.54
67364;HTU21D;54250;45.572;38.086;2023-02-18T04:30:32;2.39;88.46
67364;HTU21D;54250;45.572;38.086;2023-02-18T04:32:59;2.41;88.44
67364;HTU21D;54250;45.572;38.086;2023-02-18T04:35:25;2.44;88.45
67364;HTU21D;54250;45.572;38.086;2023-02-18T04:37:52;2.45;88.40
67364;HTU21D;54250;45.572;38.086;2023-02-18T04:40:18;2.50;88.38
67364;HTU21D;54250;45.572;38.086;2023-02-18T04:42:44;2.51;88.38
67364;HTU21D;54250;45.572;38.086;2023-02-18T04:45:10;2.54;88.35
67364;HTU21D;54250;45.572;38.086;2023-02-18T04:47:36;2.55;88.25
67364;HTU21D;54250;45.572;38.086;2023-02-18T04:50:02;2.59;88.22
67364;HTU21D;54250;45.572;38.086;2023-02-18T04:52:28;2.61;88.22
67364;HTU21D;54250;45.572;38.086;2023-02-18T04:54:54;2.64;88.28
67364;HTU21D;54250;45.572;38.086;2023-02-18T04:57:20;2.65;88.27
67364;HTU21D;54250;45.572;38.086;2023-02-18T04:59:46;2.65;88.33
67364;HTU21D;54250;45.572;38.086;2023-02-18T05:02:12;2.66;88.41
67364;HTU21D;54250;45.572;38.086;2023-02-18T05:04:38;2.67;88.41
67364;HTU21D;54250;45.572;38.086;2023-02-18T05:07:04;2.66;88.47
67364;HTU21D;54250;45.572;38.086;2023-02-18T05:09:30;2.68;88.39
67364;HTU21D;54250;45.572;38.086;2023-02-18T05:11:56;2.72;88.26
67364;HTU21D;54250;45.572;38.086;2023-02-18T05:14:22;2.74;88.18
67364;HTU21D;54250;45.572;38.086;2023-02-18T05:16:48;2.80;88.27
67364;HTU21D;54250;45.572;38.086;2023-02-18T05:19:15;2.82;88.18
67364;HTU21D;54250;45.572;38.086;2023-02-18T05:21:41;2.87;88.18
67364;HTU21D;54250;45.572;38.086;2023-02-18T05:24:08;2.89;88.12
67364;HTU21D;54250;45.572;38.086;2023-02-18T05:26:34;2.94;88.05
67364;HTU21D;54250;45.572;38.086;2023-02-18T05:29:00;2.97;88.08
67364;HTU21D;54250;45.572;38.086;2023-02-18T05:31:26;3.02;88.06
67364;HTU21D;54250;45.572;38.086;2023-02-18T05:33:52;3.05;88.04
67364;HTU21D;54250;45.572;38.086;2023-02-18T05:36:18;3.10;88.09
67364;HTU21D;54250;45.572;38.086;2023-02-18T05:38:44;3.17;87.99
67364;HTU21D;54250;45.572;38.086;2023-02-18T05:41:10;3.21;87.89
67364;HTU21D;54250;45.572;38.086;2023-02-18T05:43:36;3.28;87.86
67364;HTU21D;54250;45.572;38.086;2023-02-18T05:46:21;3.35;87.97
67364;HTU21D;54250;45.572;38.086;2023-02-18T05:48:47;3.40;87.86
67364;HTU21D;54250;45.572;38.086;2023-02-18T05:51:13;3.46;87.80
67364;HTU21D;54250;45.572;38.086;2023-02-18T05:53:39;3.53;87.83
67364;HTU21D;54250;45.572;38.086;2023-02-18T05:56:06;3.62;87.73
67364;HTU21D;54250;45.572;38.086;2023-02-18T05:58:32;3.70;87.60
67364;HTU21D;54250;45.572;38.086;2023-02-18T06:00:58;3.75;87.55
67364;HTU21D;54250;45.572;38.086;2023-02-18T06:03:24;3.82;87.57
67364;HTU21D;54250;45.572;38.086;2023-02-18T06:05:50;3.87;87.56
67364;HTU21D;54250;45.572;38.086;2023-02-18T06:08:17;3.93;87.55
67364;HTU21D;54250;45.572;38.086;2023-02-18T06:10:45;3.97;87.51
67364;HTU21D;54250;45.572;38.086;2023-02-18T06:13:11;4.03;87.49
67364;HTU21D;54250;45.572;38.086;2023-02-18T06:15:38;4.06;87.47
67364;HTU21D;54250;45.572;38.086;2023-02-18T06:18:05;4.09;87.55
67364;HTU21D;54250;45.572;38.086;2023-02-18T06:20:31;4.15;87.56
67364;HTU21D;54250;45.572;38.086;2023-02-18T06:22:58;4.20;87.57
67364;HTU21D;54250;45.572;38.086;2023-02-18T06:25:24;4.24;87.51
67364;HTU21D;54250;45.572;38.086;2023-02-18T06:27:50;4.28;87.50
67364;HTU21D;54250;45.572;38.086;2023-02-18T06:30:17;4.33;87.49
67364;HTU21D;54250;45.572;38.086;2023-02-18T06:32:43;4.43;87.43
67364;HTU21D;54250;45.572;38.086;2023-02-18T06:35:09;4.54;87.24
67364;HTU21D;54250;45.572;38.086;2023-02-18T06:37:35;4.65;87.09
67364;HTU21D;54250;45.572;38.086;2023-02-18T06:40:01;4.76;86.99
67364;HTU21D;54250;45.572;38.086;2023-02-18T06:42:27;4.80;86.96
67364;HTU21D;54250;45.572;38.086;2023-02-18T06:44:53;4.90;86.94
67364;HTU21D;54250;45.572;38.086;2023-02-18T06:47:19;5.00;86.86
67364;HTU21D;54250;45.572;38.086;2023-02-18T06:49:45;5.06;86.80
67364;HTU21D;54250;45.572;38.086;2023-02-18T06:52:12;5.12;86.76
67364;HTU21D;54250;45.572;38.086;2023-02-18T06:54:38;5.13;86.80
67364;HTU21D;54250;45.572;38.086;2023-02-18T06:57:04;5.16;86.94
67364;HTU21D;54250;45.572;38.086;2023-02-18T06:59:30;5.23;86.90
67364;HTU21D;54250;45.572;38.086;2023-02-18T07:01:55;5.37;86.74
67364;HTU21D;54250;45.572;38.086;2023-02-18T07:04:21;5.43;86.58
67364;HTU21D;54250;45.572;38.086;2023-02-18T07:06:47;5.49;86.61
67364;HTU21D;54250;45.572;38.086;2023-02-18T07:09:13;5.55;86.51
67364;HTU21D;54250;45.572;38.086;2023-02-18T07:11:39;5.63;86.50
67364;HTU21D;54250;45.572;38.086;2023-02-18T07:14:05;5.70;86.41
67364;HTU21D;54250;45.572;38.086;2023-02-18T07:16:31;5.77;86.35
67364;HTU21D;54250;45.572;38.086;2023-02-18T07:18:57;5.79;86.29
67364;HTU21D;54250;45.572;38.086;2023-02-18T07:21:24;5.82;86.32
67364;HTU21D;54250;45.572;38.086;2023-02-18T07:23:50;5.94;86.22
67364;HTU21D;54250;45.572;38.086;2023-02-18T07:26:16;6.06;86.00
67364;HTU21D;54250;45.572;38.086;2023-02-18T07:28:42;6.17;85.82
67364;HTU21D;54250;45.572;38.086;2023-02-18T07:31:08;6.28;85.72
67364;HTU21D;54250;45.572;38.086;2023-02-18T07:33:35;6.44;85.58
67364;HTU21D;54250;45.572;38.086;2023-02-18T07:36:01;6.69;85.09
67364;HTU21D;54250;45.572;38.086;2023-02-18T07:38:28;6.87;84.72
67364;HTU21D;54250;45.572;38.086;2023-02-18T07:40:55;7.02;84.63
67364;HTU21D;54250;45.572;38.086;2023-02-18T07:43:21;7.19;84.41
67364;HTU21D;54250;45.572;38.086;2023-02-18T07:45:48;7.23;84.24
67364;HTU21D;54250;45.572;38.086;2023-02-18T07:48:15;7.23;84.42
67364;HTU21D;54250;45.572;38.086;2023-02-18T07:50:43;7.29;84.58
67364;HTU21D;54250;45.572;38.086;2023-02-18T07:53:11;7.38;84.58
67364;HTU21D;54250;45.572;38.086;2023-02-18T07:55:37;7.44;84.35
67364;HTU21D;54250;45.572;38.086;2023-02-18T07:58:19;7.53;84.29
67364;HTU21D;54250;45.572;38.086;2023-02-18T08:00:47;7.64;84.08
67364;HTU21D;54250;45.572;38.086;2023-02-18T08:03:16;7.77;83.84
67364;HTU21D;54250;45.572;38.086;2023-02-18T08:05:42;7.85;83.74
67364;HTU21D;54250;45.572;38.086;2023-02-18T08:08:13;7.85;83.73
67364;HTU21D;54250;45.572;38.086;2023-02-18T08:10:39;7.90;83.73
67364;HTU21D;54250;45.572;38.086;2023-02-18T08:13:05;8.07;83.58
67364;HTU21D;54250;45.572;38.086;2023-02-18T08:15:32;8.26;83.23
67364;HTU21D;54250;45.572;38.086;2023-02-18T08:17:58;8.42;82.92
67364;HTU21D;54250;45.572;38.086;2023-02-18T08:20:24;8.49;82.63
67364;HTU21D;54250;45.572;38.086;2023-02-18T08:22:50;8.65;82.64
67364;HTU21D;54250;45.572;38.086;2023-02-18T08:25:16;9.01;81.92
67364;HTU21D;54250;45.572;38.086;2023-02-18T08:27:42;9.26;81.08
67364;HTU21D;54250;45.572;38.086;2023-02-18T08:30:09;9.60;80.88
67364;HTU21D;54250;45.572;38.086;2023-02-18T08:32:35;9.97;80.07
67364;HTU21D;54250;45.572;38.086;2023-02-18T08:35:02;10.24;79.47
67364;HTU21D;54250;45.572;38.086;2023-02-18T08:37:29;10.20;79.78
67364;HTU21D;54250;45.572;38.086;2023-02-18T08:39:55;10.54;79.66
67364;HTU21D;54250;45.572;38.086;2023-02-18T08:42:21;11.25;78.44
67364;HTU21D;54250;45.572;38.086;2023-02-18T08:44:47;11.22;77.74
67364;HTU21D;54250;45.572;38.086;2023-02-18T08:47:13;10.57;78.90
67364;HTU21D;54250;45.572;38.086;2023-02-18T08:49:39;10.16;80.14
67364;HTU21D;54250;45.572;38.086;2023-02-18T08:52:05;10.10;80.46
67364;HTU21D;54250;45.572;38.086;2023-02-18T08:54:31;9.96;80.54
67364;HTU21D;54250;45.572;38.086;2023-02-18T08:56:57;9.93;80.72
67364;HTU21D;54250;45.572;38.086;2023-02-18T08:59:23;9.81;80.78
67364;HTU21D;54250;45.572;38.086;2023-02-18T09:01:50;9.61;81.18
67364;HTU21D;54250;45.572;38.086;2023-02-18T09:04:16;9.41;81.55
67364;HTU21D;54250;45.572;38.086;2023-02-18T09:06:42;9.31;81.78
67364;HTU21D;54250;45.572;38.086;2023-02-18T09:09:08;9.19;81.68
67364;HTU21D;54250;45.572;38.086;2023-02-18T09:11:35;9.06;81.82
67364;HTU21D;54250;45.572;38.086;2023-02-18T09:14:01;9.00;81.90
67364;HTU21D;54250;45.572;38.086;2023-02-18T09:16:28;8.95;81.82
67364;HTU21D;54250;45.572;38.086;2023-02-18T09:18:55;8.90;81.84
67364;HTU21D;54250;45.572;38.086;2023-02-18T09:21:21;8.89;81.75
67364;HTU21D;54250;45.572;38.086;2023-02-18T09:23:48;8.91;81.73
67364;HTU21D;54250;45.572;38.086;2023-02-18T09:26:16;8.95;81.59
67364;HTU21D;54250;45.572;38.086;2023-02-18T09:28:42;9.00;81.38
67364;HTU21D;54250;45.572;38.086;2023-02-18T09:31:14;9.03;81.24
67364;HTU21D;54250;45.572;38.086;2023-02-18T09:33:57;9.04;81.23
67364;HTU21D;54250;45.572;38.086;2023-02-18T09:36:24;9.15;81.22
67364;HTU21D;54250;45.572;38.086;2023-02-18T09:38:51;9.32;80.77
67364;HTU21D;54250;45.572;38.086;2023-02-18T09:44:19;9.88;79.49
67364;HTU21D;54250;45.572;38.086;2023-02-18T09:46:53;10.05;79.05
67364;HTU21D;54250;45.572;38.086;2023-02-18T09:49:24;10.14;78.88
67364;HTU21D;54250;45.572;38.086;2023-02-18T09:51:51;10.03;78.98
67364;HTU21D;54250;45.572;38.086;2023-02-18T09:54:19;9.97;79.11
67364;HTU21D;54250;45.572;38.086;2023-02-18T09:56:46;9.97;78.53
67364;HTU21D;54250;45.572;38.086;2023-02-18T09:59:20;9.96;78.63
67364;HTU21D;54250;45.572;38.086;2023-02-18T10:01:50;9.97;78.63
67364;HTU21D;54250;45.572;38.086;2023-02-18T10:06:51;10.00;78.26
67364;HTU21D;54250;45.572;38.086;2023-02-18T10:09:35;10.04;77.95
67364;HTU21D;54250;45.572;38.086;2023-02-18T10:12:14;10.06;77.55
67364;HTU21D;54250;45.572;38.086;2023-02-18T10:14:42;10.04;77.49
67364;HTU21D;54250;45.572;38.086;2023-02-18T10:17:13;10.00;77.20
67364;HTU21D;54250;45.572;38.086;2023-02-18T10:19:40;9.92;76.92
67364;HTU21D;54250;45.572;38.086;2023-02-18T10:22:09;9.85;77.31
67364;HTU21D;54250;45.572;38.086;2023-02-18T10:27:08;9.68;77.43
67364;HTU21D;54250;45.572;38.086;2023-02-18T10:29:35;9.66;77.50
67364;HTU21D;54250;45.572;38.086;2023-02-18T10:35:06;9.75;77.15
67364;HTU21D;54250;45.572;38.086;2023-02-18T10:37:55;9.77;77.09
67364;HTU21D;54250;45.572;38.086;2023-02-18T10:51:25;9.93;76.33
67364;HTU21D;54250;45.572;38.086;2023-02-18T10:53:53;9.98;76.34
67364;HTU21D;54250;45.572;38.086;2023-02-18T10:56:36;10.01;76.08
67364;HTU21D;54250;45.572;38.086;2023-02-18T11:01:32;9.98;76.08
67364;HTU21D;54250;45.572;38.086;2023-02-18T11:04:28;9.94;75.44
67364;HTU21D;54250;45.572;38.086;2023-02-18T11:07:03;9.88;75.37
67364;HTU21D;54250;45.572;38.086;2023-02-18T11:12:21;9.76;75.65
67364;HTU21D;54250;45.572;38.086;2023-02-18T11:15:03;9.67;75.73
67364;HTU21D;54250;45.572;38.086;2023-02-18T11:17:31;9.62;75.60
67364;HTU21D;54250;45.572;38.086;2023-02-18T11:20:04;9.60;75.62
67364;HTU21D;54250;45.572;38.086;2023-02-18T11:22:43;9.53;75.54
67364;HTU21D;54250;45.572;38.086;2023-02-18T11:25:21;9.52;75.43
67364;HTU21D;54250;45.572;38.086;2023-02-18T11:27:59;9.51;75.31
67364;HTU21D;54250;45.572;38.086;2023-02-18T11:30:41;9.53;75.24
67364;HTU21D;54250;45.572;38.086;2023-02-18T11:39:04;9.59;75.02
67364;HTU21D;54250;45.572;38.086;2023-02-18T11:41:41;9.62;74.99
67364;HTU21D;54250;45.572;38.086;2023-02-18T11:44:37;9.65;74.77
67364;HTU21D;54250;45.572;38.086;2023-02-18T11:49:39;9.65;74.80
67364;HTU21D;54250;45.572;38.086;2023-02-18T11:52:27;9.62;74.97
67364;HTU21D;54250;45.572;38.086;2023-02-18T11:57:40;9.59;74.74
67364;HTU21D;54250;45.572;38.086;2023-02-18T12:00:22;9.62;74.74
67364;HTU21D;54250;45.572;38.086;2023-02-18T12:02:51;9.63;74.77
67364;HTU21D;54250;45.572;38.086;2023-02-18T12:05:21;9.63;74.70
67364;HTU21D;54250;45.572;38.086;2023-02-18T12:10:43;9.54;74.47
67364;HTU21D;54250;45.572;38.086;2023-02-18T12:16:17;9.50;74.57
67364;HTU21D;54250;45.572;38.086;2023-02-18T12:21:59;9.36;74.71
67364;HTU21D;54250;45.572;38.086;2023-02-18T12:32:49;9.14;75.52
67364;HTU21D;54250;45.572;38.086;2023-02-18T12:41:01;9.03;76.18
67364;HTU21D;54250;45.572;38.086;2023-02-18T12:51:54;9.00;76.43
67364;HTU21D;54250;45.572;38.086;2023-02-18T13:08:49;8.46;78.33
67364;HTU21D;54250;45.572;38.086;2023-02-18T13:16:30;8.07;79.86
67364;HTU21D;54250;45.572;38.086;2023-02-18T13:19:22;8.06;80.16
67364;HTU21D;54250;45.572;38.086;2023-02-18T13:21:52;8.03;80.29
67364;HTU21D;54250;45.572;38.086;2023-02-18T13:24:32;8.02;80.31
67364;HTU21D;54250;45.572;38.086;2023-02-18T13:34:59;7.89;81.15
67364;HTU21D;54250;45.572;38.086;2023-02-18T13:40:18;7.74;81.74
67364;HTU21D;54250;45.572;38.086;2023-02-18T13:42:50;7.65;81.91
67364;HTU21D;54250;45.572;38.086;2023-02-18T13:45:29;7.58;82.47
67364;HTU21D;54250;45.572;38.086;2023-02-18T13:47:56;7.50;82.96
67364;HTU21D;54250;45.572;38.086;2023-02-18T13:56:01;7.33;83.52
67364;HTU21D;54250;45.572;38.086;2023-02-18T13:58:47;7.22;84.04
67364;HTU21D;54250;45.572;38.086;2023-02-18T14:01:24;7.16;84.64
67364;HTU21D;54250;45.572;38.086;2023-02-18T14:03:59;7.12;84.91
67364;HTU21D;54250;45.572;38.086;2023-02-18T14:11:57;7.00;85.57
67364;HTU21D;54250;45.572;38.086;2023-02-18T14:14:39;6.98;85.93
67364;HTU21D;54250;45.572;38.086;2023-02-18T14:22:36;6.97;86.48
67364;HTU21D;54250;45.572;38.086;2023-02-18T14:27:36;6.95;86.67
67364;HTU21D;54250;45.572;38.086;2023-02-18T14:30:46;6.95;87.30
67364;HTU21D;54250;45.572;38.086;2023-02-18T14:32:59;6.91;87.33
67364;HTU21D;54250;45.572;38.086;2023-02-18T14:35:35;6.91;87.64
67364;HTU21D;54250;45.572;38.086;2023-02-18T14:41:16;6.90;87.99
67364;HTU21D;54250;45.572;38.086;2023-02-18T14:49:35;6.89;88.49
67364;HTU21D;54250;45.572;38.086;2023-02-18T14:52:04;6.89;88.62
67364;HTU21D;54250;45.572;38.086;2023-02-18T14:54:31;6.93;88.89
67364;HTU21D;54250;45.572;38.086;2023-02-18T14:57:08;6.94;89.05
67364;HTU21D;54250;45.572;38.086;2023-02-18T14:59:40;6.98;88.85
67364;HTU21D;54250;45.572;38.086;2023-02-18T15:02:24;7.00;89.05
67364;HTU21D;54250;45.572;38.086;2023-02-18T15:05:11;7.04;89.05
67364;HTU21D;54250;45.572;38.086;2023-02-18T15:07:38;7.08;89.62
67364;HTU21D;54250;45.572;38.086;2023-02-18T15:10:10;7.13;90.24
67364;HTU21D;54250;45.572;38.086;2023-02-18T15:12:38;7.15;90.30
67364;HTU21D;54250;45.572;38.086;2023-02-18T15:15:04;7.15;89.88
67364;HTU21D;54250;45.572;38.086;2023-02-18T15:17:31;7.18;90.23
67364;HTU21D;54250;45.572;38.086;2023-02-18T15:20:04;7.19;90.35
67364;HTU21D;54250;45.572;38.086;2023-02-18T15:22:31;7.14;90.09
67364;HTU21D;54250;45.572;38.086;2023-02-18T15:24:59;7.14;90.34
67364;HTU21D;54250;45.572;38.086;2023-02-18T15:27:31;7.15;90.44
67364;HTU21D;54250;45.572;38.086;2023-02-18T15:30:09;7.18;90.53
67364;HTU21D;54250;45.572;38.086;2023-02-18T15:32:37;7.17;90.77
67364;HTU21D;54250;45.572;38.086;2023-02-18T15:35:15;7.18;90.85
67364;HTU21D;54250;45.572;38.086;2023-02-18T15:37:46;7.22;91.07
67364;HTU21D;54250;45.572;38.086;2023-02-18T15:40:17;7.22;91.11
67364;HTU21D;54250;45.572;38.086;2023-02-18T15:42:49;7.25;91.15
67364;HTU21D;54250;45.572;38.086;2023-02-18T15:45:28;7.24;91.28
67364;HTU21D;54250;45.572;38.086;2023-02-18T15:47:56;7.27;91.50
67364;HTU21D;54250;45.572;38.086;2023-02-18T15:50:33;7.28;91.55
67364;HTU21D;54250;45.572;38.086;2023-02-18T15:53:08;7.33;91.81
67364;HTU21D;54250;45.572;38.086;2023-02-18T15:55:40;7.37;91.70
67364;HTU21D;54250;45.572;38.086;2023-02-18T15:58:12;7.40;91.73
67364;HTU21D;54250;45.572;38.086;2023-02-18T16:00:45;7.45;92.08
67364;HTU21D;54250;45.572;38.086;2023-02-18T16:03:23;7.48;91.94
67364;HTU21D;54250;45.572;38.086;2023-02-18T16:05:51;7.52;92.07
67364;HTU21D;54250;45.572;38.086;2023-02-18T16:08:32;7.55;92.20
67364;HTU21D;54250;45.572;38.086;2023-02-18T16:11:13;7.58;92.05
67364;HTU21D;54250;45.572;38.086;2023-02-18T16:13:46;7.63;92.06
67364;HTU21D;54250;45.572;38.086;2023-02-18T16:18:51;7.64;92.15
67364;HTU21D;54250;45.572;38.086;2023-02-18T16:23:50;7.71;92.34
67364;HTU21D;54250;45.572;38.086;2023-02-18T16:28:52;7.74;92.52
67364;HTU21D;54250;45.572;38.086;2023-02-18T16:31:19;7.76;92.98
67364;HTU21D;54250;45.572;38.086;2023-02-18T16:33:47;7.78;92.89
67364;HTU21D;54250;45.572;38.086;2023-02-18T16:36:15;7.81;92.77
67364;HTU21D;54250;45.572;38.086;2023-02-18T16:38:43;7.85;92.80
67364;HTU21D;54250;45.572;38.086;2023-02-18T16:41:12;7.88;92.71
67364;HTU21D;54250;45.572;38.086;2023-02-18T16:43:38;7.90;92.72
67364;HTU21D;54250;45.572;38.086;2023-02-18T16:46:16;7.92;92.87
67364;HTU21D;54250;45.572;38.086;2023-02-18T16:48:45;7.94;92.70
67364;HTU21D;54250;45.572;38.086;2023-02-18T16:51:17;7.94;92.85
67364;HTU21D;54250;45.572;38.086;2023-02-18T16:53:45;7.94;92.79
67364;HTU21D;54250;45.572;38.086;2023-02-18T16:56:24;7.96;92.56
67364;HTU21D;54250;45.572;38.086;2023-02-18T16:58:51;7.96;92.85
67364;HTU21D;54250;45.572;38.086;2023-02-18T17:01:30;7.98;92.88
67364;HTU21D;54250;45.572;38.086;2023-02-18T17:04:00;7.96;92.95
67364;HTU21D;54250;45.572;38.086;2023-02-18T17:06:28;7.94;92.75
67364;HTU21D;54250;45.572;38.086;2023-02-18T17:08:54;7.93;92.70
67364;HTU21D;54250;45.572;38.086;2023-02-18T17:11:23;7.97;92.70
67364;HTU21D;54250;45.572;38.086;2023-02-18T17:13:52;7.97;92.67
67364;HTU21D;54250;45.572;38.086;2023-02-18T17:16:19;7.98;92.70
67364;HTU21D;54250;45.572;38.086;2023-02-18T17:18:52;7.98;92.60
67364;HTU21D;54250;45.572;38.086;2023-02-18T17:21:24;7.98;92.55
67364;HTU21D;54250;45.572;38.086;2023-02-18T17:23:52;7.98;92.69
67364;HTU21D;54250;45.572;38.086;2023-02-18T17:26:24;7.98;92.70
67364;HTU21D;54250;45.572;38.086;2023-02-18T17:28:56;7.96;92.79
67364;HTU21D;54250;45.572;38.086;2023-02-18T17:31:29;7.93;92.67
67364;HTU21D;54250;45.572;38.086;2023-02-18T17:33:59;7.96;92.50
67364;HTU21D;54250;45.572;38.086;2023-02-18T17:36:26;7.94;92.40
67364;HTU21D;54250;45.572;38.086;2023-02-18T17:38:53;7.92;92.43
67364;HTU21D;54250;45.572;38.086;2023-02-18T17:41:19;7.90;92.42
67364;HTU21D;54250;45.572;38.086;2023-02-18T17:43:45;7.85;92.31
67364;HTU21D;54250;45.572;38.086;2023-02-18T17:46:13;7.83;92.27
67364;HTU21D;54250;45.572;38.086;2023-02-18T17:48:41;7.82;92.39
67364;HTU21D;54250;45.572;38.086;2023-02-18T17:51:26;7.86;92.35
67364;HTU21D;54250;45.572;38.086;2023-02-18T17:53:54;7.86;92.25
67364;HTU21D;54250;45.572;38.086;2023-02-18T17:56:20;7.85;92.18
67364;HTU21D;54250;45.572;38.086;2023-02-18T17:58:48;7.77;92.20
67364;HTU21D;54250;45.572;38.086;2023-02-18T18:01:15;7.71;92.29
67364;HTU21D;54250;45.572;38.086;2023-02-18T18:03:43;7.61;92.39
67364;HTU21D;54250;45.572;38.086;2023-02-18T18:06:17;7.49;92.50
67364;HTU21D;54250;45.572;38.086;2023-02-18T18:08:44;7.43;92.58
67364;HTU21D;54250;45.572;38.086;2023-02-18T18:11:21;7.38;92.53
67364;HTU21D;54250;45.572;38.086;2023-02-18T18:13:49;7.40;92.56
67364;HTU21D;54250;45.572;38.086;2023-02-18T18:16:23;7.42;92.44
67364;HTU21D;54250;45.572;38.086;2023-02-18T18:18:49;7.47;92.38
67364;HTU21D;54250;45.572;38.086;2023-02-18T18:21:22;7.54;92.05
67364;HTU21D;54250;45.572;38.086;2023-02-18T18:23:49;7.55;91.98